Monday, February 19, 2018, 10:10 AM GMT
Back to Local

CZBF, Bathurst Airport Aviation Weather Reporting Station

Location: , , Canada Lat: 47.633
Local Time: 10:10 AM GMT (10:10 GMT) Lon: -65.75
Time Zone: GMT Elev: 193 ft

Show me the last for .
Show Decoded

2018-02-19 09:00 METAR CZBF 190900Z 00000KT 15SM SKC M18/M21 A3043 RMK FROIN SLP312 =
2018-02-19 08:00 METAR CZBF 190800Z VRB02KT 15SM SKC M17/M18 A3043 RMK FROIN SLP311 =
2018-02-19 07:00 METAR CZBF 190700Z 22003KT 15SM SKC M14/M15 A3041 RMK SLP305 =
2018-02-19 06:00 METAR CZBF 190600Z 25005KT 15SM SKC M11/M13 A3040 RMK SLP301 =
2018-02-19 05:00 METAR CZBF 190500Z 22003KT 15SM SKC M15/M18 A3038 RMK SLP293 =
2018-02-19 04:00 METAR CZBF 190400Z 20002KT 15SM SKC M16/M17 A3036 RMK SLP289 =
2018-02-19 03:00 METAR CZBF 190300Z 24003KT 15SM SKC M13/M14 A3036 RMK PRESRR SLP288 =
2018-02-19 02:00 METAR CZBF 190200Z 20003KT 15SM SKC M14/M15 A3031 RMK SLP269 =
2018-02-19 01:00 METAR CZBF 190100Z 25005KT 15SM SKC M12/M13 A3029 RMK SLP263 =
2018-02-19 00:00 METAR CZBF 190000Z 26004KT 15SM SKC M12/M13 A3022 RMK SLP241 =
2018-02-18 23:00 METAR CZBF 182300Z 00000KT 15SM FEW040 M10/M11 A3017 RMK SC1 SLP225 =
2018-02-18 22:00 METAR CZBF 182200Z 19003KT 15SM FEW040 M07/M10 A3015 RMK SC1 SLP214 =
2018-02-18 21:00 METAR CZBF 182100Z 16003KT 15SM VCSH SCT015 SCT120 M04/M08 A3012 RMK SC3AC1 AC
                 TR SLP206 =
2018-02-18 20:09 METAR CZBF 182009Z 03002KT 4SM -SHSN BKN015 M05/M08 A3010 RMK SC7 CVCTV CLD EMBD
                 SLP199 =
2018-02-18 20:00 METAR CZBF 182000Z 04005KT 340V080 12SM -SHSN BKN018 M05/M08 A3009 RMK SC7 CVCTV
                 CLD EMBD PRESRR SLP197 =
2018-02-18 19:00 METAR CZBF 181900Z 09007KT 15SM BKN030 BKN120 M05/M09 A3005 RMK SC6AC1 AC TR
                 OCNL -SHSN SLP182 =
2018-02-18 18:28 METAR CZBF 181828Z 06005KT 360V070 15SM -SHSN SCT030 SCT070 BKN200 M03/M08 A3004
                 RMK SC4AC1CC1 AC TR CVCTV CLD EMBD SLP177 =
2018-02-18 18:00 METAR CZBF 181800Z 05005KT 020V090 15SM SCT030 SCT200 M03/M08 A3004 RMK SC3CC1
                 SLP177 =
2018-02-18 17:00 METAR CZBF 181700Z 00000KT 15SM FEW030 FEW120 BKN220 M03/M08 A3002 RMK SC1AS1CI5
                 SLP173 =
2018-02-18 16:00 METAR CZBF 181600Z VRB02KT 15SM FEW030 FEW120 BKN220 M05/M09 A3003 RMK SC1AC1CI5
                 SLP176 =
2018-02-18 15:00 METAR CZBF 181500Z 14002KT 12SM FEW008 SCT050 BKN120 M07/M10 A3004 RMK ST1SC3AS3
                 SLP179 =
2018-02-18 14:00 METAR CZBF 181400Z 16005KT 3SM -SN SCT008 BKN050 OVC070 M08/M10 A3005 RMK
                 ST4SC1AS3 VIS 1 3/4 E /S01/ SLP181 =
2018-02-18 13:41 METAR CZBF 181341Z 16004KT 1 1/4SM -SN OVC008 M09/M10 A3005 RMK SN6ST2 SLP182 =
2018-02-18 13:00 METAR CZBF 181300Z 18003KT 160V230 1SM -SN VV008 M09/M11 A3006 RMK SN8 SLP186 =
2018-02-18 12:28 METAR CZBF 181228Z VRB02KT 1/2SM SN VV004 M10/M11 A3006 RMK SN8 SLP185 =
2018-02-18 12:00 METAR CZBF 181200Z 00000KT 1 1/2SM -SN OVC015 M10/M12 A3006 RMK SN4ST4 SLP184 =
2018-02-18 11:00 METAR CZBF 181100Z 18005KT 4SM -SN OVC030 M10/M12 A3004 RMK SC8 SLP180 =
2018-02-18 10:38 METAR CZBF 181038Z 18005KT 2SM -SN VV015 M10/M13 A3005 RMK SN8 SLP182 =

Support USWX by starting your Amazon purchase here.